Time;durP1;ratioP1;P1;durP2;ratioP2;P2;SDS_P1;SDS_P2;PMS_P1;PMS_P2;Temp;Humidity;BMP_temperature;BMP_pressure;BME280_temperature;BME280_humidity;BME280_pressure;Samples;Min_cycle;Max_cycle;Signal;HPM_P1;HPM_P2
2022/01/22 00:00:52;;;;;;;12.43;5.87;;;;;;;9.18;35.79;99537.59;1637191;86;21069;-59
2022/01/22 00:03:18;;;;;;;11.12;6.28;;;;;;;8.81;36.14;99538.75;1668278;85;21077;-60
2022/01/22 00:05:45;;;;;;;12.90;5.87;;;;;;;9.04;36.08;99539.80;1685672;84;21571;-60
2022/01/22 00:08:11;;;;;;;14.75;6.08;;;;;;;8.53;36.53;99540.84;1656251;85;21011;-61
2022/01/22 00:10:42;;;;;;;12.55;6.20;;;;;;;8.36;36.79;99545.44;1685063;84;21173;-58
2022/01/22 00:14:23;;;;;;;12.93;5.53;;;;;;;8.62;36.71;99553.99;1656159;85;21022;-59
2022/01/22 00:15:41;;;;;;;13.60;5.80;;;;;;;8.84;36.09;99552.67;1688601;83;21028;-61
2022/01/22 00:18:06;;;;;;;10.23;5.33;;;;;;;8.92;36.23;99559.83;1655084;85;21000;-61
2022/01/22 00:20:36;;;;;;;10.78;5.60;;;;;;;9.17;35.90;99560.70;1675086;85;21109;-61
2022/01/22 00:23:04;;;;;;;11.83;5.40;;;;;;;8.80;36.45;99567.84;1676052;85;21189;-61
2022/01/22 00:25:34;;;;;;;10.45;5.28;;;;;;;9.07;36.11;99561.53;1655071;85;20925;-62
2022/01/22 00:28:01;;;;;;;12.10;6.03;;;;;;;9.37;35.63;99564.71;1675370;85;21007;-61
2022/01/22 00:30:28;;;;;;;13.20;5.55;;;;;;;9.55;35.37;99560.31;1655121;86;21122;-61
2022/01/22 00:32:56;;;;;;;10.63;5.60;;;;;;;9.38;35.54;99563.20;1675253;83;21067;-59
2022/01/22 00:35:23;;;;;;;11.30;5.67;;;;;;;9.37;35.35;99570.72;1654584;85;21125;-59
2022/01/22 00:37:53;;;;;;;12.82;5.70;;;;;;;9.06;35.89;99572.93;1685629;84;21083;-60
2022/01/22 00:40:20;;;;;;;15.88;7.10;;;;;;;8.94;35.94;99572.15;1655565;85;21011;-60
2022/01/22 00:42:48;;;;;;;21.02;7.37;;;;;;;8.93;36.06;99575.72;1655451;85;21042;-65
2022/01/22 00:45:16;;;;;;;19.57;8.30;;;;;;;8.57;36.29;99573.74;1686376;84;21070;-59
2022/01/22 00:47:43;;;;;;;15.20;6.80;;;;;;;8.67;36.54;99572.91;1656476;85;21224;-59
2022/01/22 00:50:15;;;;;;;14.90;7.20;;;;;;;8.73;36.47;99572.17;1675128;85;21008;-66
2022/01/22 00:52:42;;;;;;;14.85;7.10;;;;;;;8.25;37.10;99565.41;1686235;84;21078;-62
2022/01/22 00:55:11;;;;;;;15.63;7.05;;;;;;;8.17;37.54;99566.83;1684255;83;20892;-58
2022/01/22 00:57:37;;;;;;;14.75;7.55;;;;;;;8.11;37.51;99559.80;1684898;84;20951;-58
2022/01/22 01:00:07;;;;;;;19.17;8.18;;;;;;;8.10;37.48;99565.45;1654382;85;22805;-60
2022/01/22 01:02:36;;;;;;;23.98;11.10;;;;;;;7.95;37.60;99562.89;1655926;85;21030;-58
2022/01/22 01:05:05;;;;;;;24.50;11.20;;;;;;;8.32;37.23;99566.28;1669826;84;21138;-58
2022/01/22 01:07:33;;;;;;;17.62;9.58;;;;;;;8.13;37.44;99569.48;1629974;85;21083;-66
2022/01/22 01:10:04;;;;;;;21.85;9.78;;;;;;;8.22;37.29;99573.56;1629335;85;21627;-63
2022/01/22 01:12:31;;;;;;;21.12;9.35;;;;;;;8.28;36.97;99572.83;1627134;88;25111;-61
2022/01/22 01:18:04;;;;;;;49.40;22.75;;;;;;;8.36;37.00;99575.30;1627673;86;21143;-60
2022/01/22 01:36:40;;;;;;;14.20;7.78;;;;;;;8.32;37.36;99593.55;1629191;85;21595;-59
2022/01/22 01:39:15;;;;;;;17.27;8.58;;;;;;;8.52;37.02;99591.16;1627632;85;21258;-59
2022/01/22 01:41:54;;;;;;;16.27;9.50;;;;;;;7.82;37.77;99597.78;1627841;85;21095;-66
2022/01/22 01:44:14;;;;;;;18.85;9.58;;;;;;;7.97;37.90;99595.17;1616321;86;21031;-58
2022/01/22 01:46:58;;;;;;;16.85;9.33;;;;;;;8.00;37.82;99596.11;1626776;87;21107;-67
2022/01/22 01:49:26;;;;;;;18.57;9.25;;;;;;;7.70;38.32;99603.13;1613910;88;21042;-64
2022/01/22 01:51:59;;;;;;;20.80;9.05;;;;;;;7.53;38.49;99601.19;1628382;85;21147;-60
2022/01/22 01:54:46;;;;;;;16.48;9.95;;;;;;;7.79;38.53;99598.14;1627620;87;20957;-59
2022/01/22 01:59:51;;;;;;;16.85;10.58;;;;;;;7.94;38.36;99588.54;1627572;86;21031;-61
2022/01/22 02:02:22;;;;;;;15.75;8.58;;;;;;;8.31;37.95;99585.45;1629013;85;20949;-62
2022/01/22 02:04:50;;;;;;;18.60;8.83;;;;;;;8.39;37.91;99585.36;1653033;85;21672;-65
2022/01/22 02:07:17;;;;;;;13.28;7.72;;;;;;;8.45;37.86;99583.33;1687840;84;22113;-60
2022/01/22 02:09:45;;;;;;;15.15;8.13;;;;;;;8.16;38.22;99586.00;1671729;84;20970;-58
2022/01/22 02:12:39;;;;;;;25.43;14.35;;;;;;;8.18;38.24;99589.20;1689124;84;20994;-58
2022/01/22 02:25:56;;;;;;;22.13;10.78;;;;;;;8.09;38.80;99592.90;1671006;84;22353;-59
2022/01/22 02:28:21;;;;;;;16.17;9.78;;;;;;;8.10;38.94;99597.09;1689332;84;20930;-59
2022/01/22 02:30:57;;;;;;;15.98;8.20;;;;;;;7.88;39.36;99592.34;1669210;85;21158;-59
2022/01/22 02:37:02;;;;;;;21.52;13.85;;;;;;;7.95;39.22;99588.84;1678153;84;21136;-58
2022/01/22 02:38:48;;;;;;;17.30;8.73;;;;;;;7.87;39.28;99590.25;1662456;84;21591;-59
2022/01/22 02:41:16;;;;;;;16.32;7.28;;;;;;;7.66;39.62;99588.41;1644059;85;21022;-66
2022/01/22 02:43:40;;;;;;;19.85;9.93;;;;;;;7.89;39.44;99585.70;1689183;83;21824;-59
2022/01/22 02:46:08;;;;;;;17.82;9.10;;;;;;;7.56;39.84;99593.06;1675030;84;21071;-59
2022/01/22 02:48:35;;;;;;;19.05;11.00;;;;;;;7.65;39.82;99597.19;1689650;83;20944;-61
2022/01/22 02:51:04;;;;;;;21.40;12.70;;;;;;;7.81;39.73;99598.78;1670174;84;21098;-65
2022/01/22 02:53:33;;;;;;;16.27;9.68;;;;;;;8.01;39.45;99593.31;1689492;84;22397;-61
2022/01/22 02:56:00;;;;;;;16.62;8.85;;;;;;;8.35;39.04;99598.88;1689423;84;21232;-60
2022/01/22 02:58:27;;;;;;;15.72;10.32;;;;;;;8.30;39.02;99600.73;1670181;85;21010;-61
2022/01/22 03:00:57;;;;;;;14.23;7.33;;;;;;;8.19;39.10;99594.22;1692624;84;20931;-68
2022/01/22 03:03:23;;;;;;;14.70;9.03;;;;;;;8.11;39.28;99590.45;1669651;85;21139;-60
2022/01/22 03:05:50;;;;;;;14.20;8.08;;;;;;;8.21;39.27;99588.33;1671330;84;21089;-59
2022/01/22 03:08:19;;;;;;;18.70;8.70;;;;;;;8.00;39.53;99598.20;1628582;85;21161;-58
2022/01/22 03:10:52;;;;;;;15.60;8.75;;;;;;;8.19;39.54;99592.13;1627560;86;21032;-66
2022/01/22 03:16:11;;;;;;;14.38;6.75;;;;;;;8.27;39.15;99607.08;1628120;85;21039;-59
2022/01/22 03:18:37;;;;;;;12.78;6.75;;;;;;;8.18;39.30;99611.27;1627142;87;20952;-69
2022/01/22 03:21:11;;;;;;;13.18;6.90;;;;;;;8.26;39.25;99604.69;1627270;85;21142;-61
2022/01/22 03:29:11;;;;;;;11.88;6.90;;;;;;;8.20;39.22;99610.09;1627878;86;21031;-59
2022/01/22 03:31:35;;;;;;;13.62;6.95;;;;;;;8.39;39.02;99599.64;1625872;87;20997;-67
2022/01/22 03:34:02;;;;;;;11.40;6.25;;;;;;;8.56;38.77;99601.52;1627274;86;21144;-59
2022/01/22 03:36:33;;;;;;;18.37;7.67;;;;;;;8.64;38.64;99609.68;1627089;86;21120;-62
2022/01/22 03:39:08;;;;;;;15.95;7.25;;;;;;;8.62;38.60;99611.65;1659081;85;20976;-60
2022/01/22 03:41:35;;;;;;;13.58;5.62;;;;;;;8.75;38.55;99609.98;1667682;85;21087;-61
2022/01/22 03:44:05;;;;;;;12.20;5.58;;;;;;;8.83;38.41;99609.05;1627359;87;21103;-59
2022/01/22 03:46:33;;;;;;;12.60;6.00;;;;;;;8.60;38.64;99608.42;1627886;86;22303;-58
2022/01/22 03:49:00;;;;;;;10.60;5.33;;;;;;;8.34;39.06;99608.95;1606097;87;21485;-60
2022/01/22 03:51:29;;;;;;;13.35;7.20;;;;;;;8.28;39.14;99612.58;1627963;86;21571;-67
2022/01/22 03:53:58;;;;;;;15.25;7.30;;;;;;;8.46;38.99;99617.89;1628429;86;20993;-60
2022/01/22 03:56:26;;;;;;;13.58;7.00;;;;;;;8.46;38.95;99619.99;1627550;87;21091;-59
2022/01/22 03:59:04;;;;;;;12.65;7.25;;;;;;;8.51;38.89;99619.44;1599593;88;21199;-59
2022/01/22 04:04:35;;;;;;;13.62;7.65;;;;;;;8.69;38.76;99626.30;1709194;83;21080;-60
2022/01/22 04:09:45;;;;;;;11.60;5.42;;;;;;;8.60;38.92;99625.30;1707482;83;21020;-60
2022/01/22 04:12:14;;;;;;;11.25;5.33;;;;;;;8.34;39.20;99631.83;1709470;83;21863;-60
2022/01/22 04:14:50;;;;;;;12.45;5.30;;;;;;;8.32;39.29;99632.50;1709559;82;20905;-66
2022/01/22 04:25:17;;;;;;;13.10;7.05;;;;;;;8.42;38.60;99648.63;1707391;82;21153;-59
2022/01/22 04:27:41;;;;;;;11.68;6.22;;;;;;;8.45;38.63;99652.66;1709128;82;21485;-60
2022/01/22 04:30:10;;;;;;;12.35;5.50;;;;;;;8.50;38.47;99651.10;1708826;83;20998;-66
2022/01/22 04:32:39;;;;;;;11.63;4.85;;;;;;;8.61;38.30;99653.71;1708185;83;21099;-60
2022/01/22 04:35:10;;;;;;;11.55;5.62;;;;;;;8.56;38.40;99654.77;1679205;83;22389;-59
2022/01/22 04:37:37;;;;;;;11.63;5.80;;;;;;;8.60;38.48;99646.09;1707811;83;21813;-58
2022/01/22 04:40:06;;;;;;;11.57;6.15;;;;;;;8.46;38.56;99655.06;1684144;85;21055;-62
2022/01/22 04:42:38;;;;;;;14.75;7.12;;;;;;;8.43;38.58;99655.42;1677733;85;20953;-60
2022/01/22 04:45:25;;;;;;;15.55;6.33;;;;;;;8.60;38.30;99652.11;1684340;85;21000;-61
2022/01/22 04:47:49;;;;;;;10.95;5.87;;;;;;;8.67;38.23;99654.25;1706666;83;21166;-61
2022/01/22 04:55:35;;;;;;;10.98;5.10;;;;;;;8.35;38.81;99668.98;1708725;83;21061;-60
2022/01/22 04:58:06;;;;;;;9.13;5.12;;;;;;;8.29;38.92;99664.81;1708992;83;21060;-60
2022/01/22 05:00:37;;;;;;;9.83;5.53;;;;;;;8.45;38.59;99677.33;1708929;81;20992;-60
2022/01/22 05:03:07;;;;;;;13.50;6.62;;;;;;;8.11;39.34;99674.81;1708945;83;21145;-59
2022/01/22 05:05:44;;;;;;;12.65;6.85;;;;;;;8.33;39.13;99673.05;1709071;83;21469;-61
2022/01/22 05:08:12;;;;;;;12.18;6.28;;;;;;;8.70;38.57;99671.28;1708908;83;21000;-68
2022/01/22 05:10:43;;;;;;;;;;;;;;;8.82;38.37;99674.19;1710871;83;21132;-59
2022/01/22 05:13:11;;;;;;;9.15;5.17;;;;;;;8.77;38.30;99675.55;1708746;83;20189;-67
2022/01/22 05:15:38;;;;;;;10.85;5.83;;;;;;;8.80;38.50;99682.68;1709025;83;21230;-60
2022/01/22 05:18:07;;;;;;;13.10;5.35;;;;;;;8.98;38.24;99679.16;1708881;83;20945;-60
2022/01/22 05:20:45;;;;;;;9.25;5.30;;;;;;;9.09;37.97;99677.35;1709102;83;21491;-67
2022/01/22 05:23:12;;;;;;;11.73;5.87;;;;;;;9.11;37.72;99677.16;1708648;83;21107;-65
2022/01/22 05:25:45;;;;;;;11.93;4.90;;;;;;;7.62;39.91;99684.44;1709173;83;21601;-60
2022/01/22 05:31:30;;;;;;;10.90;5.58;;;;;;;7.73;40.03;99681.90;1709678;82;21010;-61
2022/01/22 05:39:13;;;;;;;12.18;5.67;;;;;;;7.40;40.75;99692.58;1707959;83;21053;-61
2022/01/22 05:41:39;;;;;;;14.75;6.50;;;;;;;7.65;40.60;99687.14;1701447;83;21126;-62
2022/01/22 05:44:06;;;;;;;13.75;6.67;;;;;;;7.51;40.54;99693.45;1708764;83;21661;-62
2022/01/22 05:46:41;;;;;;;11.53;5.65;;;;;;;7.62;40.70;99686.23;1742510;80;21508;-61
2022/01/22 05:49:12;;;;;;;9.93;5.15;;;;;;;7.70;40.69;99685.64;1740460;80;21109;-61
2022/01/22 05:51:41;;;;;;;11.80;6.17;;;;;;;7.92;40.32;99681.36;1707966;81;20978;-62
2022/01/22 05:54:31;;;;;;;11.78;6.00;;;;;;;7.93;40.21;99679.06;1742515;80;21153;-61
2022/01/22 05:59:39;;;;;;;16.02;7.37;;;;;;;7.78;40.51;99682.16;1729499;80;21478;-68
2022/01/22 06:02:10;;;;;;;24.07;12.60;;;;;;;7.81;40.38;99684.41;1751909;80;21457;-60
2022/01/22 06:04:37;;;;;;;17.87;9.73;;;;;;;7.69;40.67;99689.70;1698362;82;21487;-60
2022/01/22 06:07:08;;;;;;;11.12;6.58;;;;;;;8.33;39.88;99684.73;1706868;82;21002;-69
2022/01/22 06:09:39;;;;;;;11.78;5.92;;;;;;;8.49;39.49;99679.38;1732561;81;22537;-62
2022/01/22 06:14:39;;;;;;;12.03;6.15;;;;;;;8.50;39.17;99678.38;1725965;81;21068;-61
2022/01/22 06:17:05;;;;;;;31.68;20.55;;;;;;;8.46;39.23;99690.13;1730502;81;21117;-63
2022/01/22 06:19:39;;;;;;;19.07;8.85;;;;;;;8.39;39.25;99696.23;1748544;81;21169;-60
2022/01/22 06:22:06;;;;;;;12.03;7.30;;;;;;;8.40;39.08;99705.63;1751527;81;20967;-60
2022/01/22 06:24:33;;;;;;;12.03;6.28;;;;;;;8.57;38.80;99700.53;1724204;81;21062;-61
2022/01/22 06:27:02;;;;;;;14.30;6.85;;;;;;;8.77;38.55;99691.14;1742924;80;21073;-65
2022/01/22 06:29:29;;;;;;;12.13;6.28;;;;;;;8.50;38.74;99702.25;1742988;81;21491;-64
2022/01/22 06:31:57;;;;;;;17.42;7.00;;;;;;;8.47;39.07;99703.41;1742867;81;21168;-60
2022/01/22 06:34:25;;;;;;;12.65;6.12;;;;;;;8.70;38.67;99703.26;1741888;81;21073;-61
2022/01/22 06:36:55;;;;;;;11.75;6.42;;;;;;;8.69;38.56;99702.16;1738402;81;21082;-67
2022/01/22 06:39:23;;;;;;;11.50;6.10;;;;;;;8.26;39.17;99716.33;1712143;81;21164;-62
2022/01/22 06:41:55;;;;;;;12.80;6.12;;;;;;;8.36;39.00;99708.24;1668179;83;21517;-64
2022/01/22 06:44:34;;;;;;;11.73;5.87;;;;;;;8.37;39.03;99717.20;1753784;80;21139;-62
2022/01/22 06:47:02;;;;;;;15.53;6.83;;;;;;;8.37;39.21;99718.94;1720276;81;20991;-70
2022/01/22 06:49:48;;;;;;;13.05;6.87;;;;;;;8.47;39.08;99712.50;1748227;81;21078;-64
2022/01/22 06:52:16;;;;;;;15.55;7.62;;;;;;;8.73;38.96;99713.29;1746558;81;20999;-72
2022/01/22 06:54:48;;;;;;;13.53;6.15;;;;;;;8.94;38.60;99721.61;1742368;81;21041;-67
2022/01/22 06:57:14;;;;;;;12.95;6.72;;;;;;;8.83;38.83;99728.59;1745884;81;21136;-62
2022/01/22 06:59:42;;;;;;;15.32;7.20;;;;;;;8.94;38.78;99727.28;1750977;80;20955;-60
2022/01/22 07:02:09;;;;;;;12.98;6.20;;;;;;;8.94;38.59;99716.88;1750662;80;21063;-59
2022/01/22 07:04:38;;;;;;;13.45;6.30;;;;;;;8.96;38.50;99720.11;1750514;81;21003;-61
2022/01/22 07:07:23;;;;;;;11.97;5.85;;;;;;;8.93;38.60;99710.87;1751507;81;20932;-60
2022/01/22 07:09:51;;;;;;;11.03;5.30;;;;;;;9.09;38.46;99707.72;1751796;81;21775;-60
2022/01/22 07:12:18;;;;;;;15.18;5.87;;;;;;;9.23;38.25;99719.86;1752198;81;20971;-67
2022/01/22 07:14:49;;;;;;;11.03;6.17;;;;;;;9.16;38.42;99718.48;1750650;81;20948;-64
2022/01/22 07:17:15;;;;;;;11.35;6.83;;;;;;;9.28;38.48;99718.81;1729062;81;21853;-61
2022/01/22 07:19:47;;;;;;;12.47;6.47;;;;;;;9.34;38.75;99724.55;1767166;79;21018;-59
2022/01/22 07:25:19;;;;;;;14.43;7.95;;;;;;;9.93;37.80;99738.48;1715536;79;21106;-58
2022/01/22 07:27:46;;;;;;;15.00;7.90;;;;;;;10.08;37.71;99747.99;1763982;79;20892;-60
2022/01/22 07:30:13;;;;;;;16.50;8.28;;;;;;;10.31;37.40;99751.14;1769284;79;20987;-65
2022/01/22 07:32:43;;;;;;;15.53;7.53;;;;;;;10.48;37.17;99747.69;1690837;82;21448;-58
2022/01/22 07:35:10;;;;;;;21.15;11.80;;;;;;;10.41;37.16;99754.17;1770560;79;21528;-58
2022/01/22 07:37:39;;;;;;;28.75;16.05;;;;;;;10.59;36.72;99751.05;1726162;80;21531;-59
2022/01/22 07:40:09;;;;;;;44.65;23.18;;;;;;;10.57;36.49;99748.31;1759791;80;21097;-65
2022/01/22 07:42:39;;;;;;;32.35;14.63;;;;;;;10.60;36.45;99753.14;1762020;80;21066;-59
2022/01/22 07:45:25;;;;;;;25.32;11.30;;;;;;;10.78;36.27;99752.11;1760267;80;21946;-67
2022/01/22 07:47:54;;;;;;;54.48;20.97;;;;;;;11.05;35.92;99754.77;1752833;80;22372;-67
2022/01/22 07:50:23;;;;;;;37.80;16.48;;;;;;;11.51;35.39;99759.22;1752362;80;22522;-65
2022/01/22 07:52:50;;;;;;;37.67;15.58;;;;;;;11.19;35.81;99775.97;1758749;79;21050;-59
2022/01/22 07:55:20;;;;;;;36.42;15.83;;;;;;;11.11;36.07;99777.47;1764534;79;21052;-66
2022/01/22 07:57:49;;;;;;;33.75;14.33;;;;;;;11.39;35.96;99772.87;1762236;79;21373;-66
2022/01/22 08:00:17;;;;;;;;;;;;;;;11.38;35.89;99780.41;1765955;79;23277;-60
2022/01/22 08:02:48;;;;;;;27.45;12.45;;;;;;;11.33;36.30;99788.03;1726614;81;20434;-59
2022/01/22 08:05:33;;;;;;;19.70;9.80;;;;;;;11.60;35.78;99788.05;1757326;79;21587;-66
2022/01/22 08:08:04;;;;;;;23.95;11.20;;;;;;;11.39;35.85;99798.17;1718469;79;21467;-59
2022/01/22 08:10:33;;;;;;;29.82;13.13;;;;;;;11.42;35.87;99805.60;1761419;79;21143;-62
2022/01/22 08:13:00;;;;;;;33.45;13.85;;;;;;;11.89;35.53;99801.20;1753745;80;21192;-61
2022/01/22 08:15:28;;;;;;;29.05;14.25;;;;;;;11.64;35.92;99801.80;1746660;80;20990;-62
2022/01/22 08:18:04;;;;;;;24.63;11.35;;;;;;;11.99;35.65;99805.52;1768074;79;21107;-61
2022/01/22 08:20:32;;;;;;;27.32;11.60;;;;;;;11.95;35.83;99810.05;1759835;79;21078;-61
2022/01/22 08:22:59;;;;;;;21.23;10.88;;;;;;;12.05;35.62;99810.45;1763035;79;21088;-68
2022/01/22 08:25:46;;;;;;;13.00;7.22;;;;;;;12.29;35.20;99807.18;1759287;79;21465;-59
2022/01/22 08:31:05;;;;;;;25.60;13.50;;;;;;;12.58;34.65;99812.94;1755586;79;21028;-60
2022/01/22 08:36:16;;;;;;;16.30;8.53;;;;;;;12.88;33.96;99811.91;1756957;79;21062;-66
2022/01/22 08:38:43;;;;;;;13.88;7.60;;;;;;;13.14;33.64;99803.91;1757321;79;21270;-69
2022/01/22 08:41:16;;;;;;;11.35;7.65;;;;;;;13.10;33.52;99801.91;1775465;79;21450;-61
2022/01/22 08:43:44;;;;;;;13.38;6.83;;;;;;;12.95;33.51;99802.70;1756553;79;21015;-61
2022/01/22 08:46:12;;;;;;;15.72;8.33;;;;;;;12.99;33.40;99803.87;1754428;79;21073;-68
2022/01/22 08:48:41;;;;;;;12.07;6.50;;;;;;;12.91;33.75;99789.23;1758085;80;21059;-68
2022/01/22 08:51:12;;;;;;;14.40;6.80;;;;;;;13.20;32.99;99778.70;1751779;80;21156;-61
2022/01/22 08:53:39;;;;;;;15.20;8.70;;;;;;;13.05;33.31;99780.81;1750348;80;20888;-61
2022/01/22 08:56:08;;;;;;;12.05;7.17;;;;;;;13.01;33.31;99788.28;1757896;80;20949;-65
2022/01/22 08:58:36;;;;;;;13.05;7.12;;;;;;;12.90;33.31;99782.40;1743162;80;21539;-68
2022/01/22 09:01:11;;;;;;;16.60;7.90;;;;;;;12.96;33.18;99794.66;1724716;81;21085;-62
2022/01/22 09:03:39;;;;;;;14.13;7.40;;;;;;;12.77;33.89;99794.25;1740025;80;21895;-68
2022/01/22 09:06:25;;;;;;;12.58;7.35;;;;;;;12.76;33.89;99782.16;1740906;80;21053;-62
2022/01/22 09:09:10;;;;;;;13.58;7.90;;;;;;;12.94;33.82;99782.78;1735413;80;20953;-60
2022/01/22 09:11:38;;;;;;;13.80;7.72;;;;;;;13.24;33.21;99769.44;1685161;83;21036;-60
2022/01/22 09:14:09;;;;;;;13.58;7.95;;;;;;;13.30;33.16;99776.97;1747281;80;21030;-65
2022/01/22 09:16:40;;;;;;;13.35;7.78;;;;;;;13.21;33.10;99778.19;1754623;80;21806;-61
2022/01/22 09:19:10;;;;;;;15.10;7.80;;;;;;;13.17;33.32;99779.63;1760625;80;20997;-66
2022/01/22 09:21:41;;;;;;;12.70;7.35;;;;;;;13.44;33.03;99777.66;1753068;80;21013;-60
2022/01/22 09:24:09;;;;;;;14.25;7.42;;;;;;;12.39;33.77;99785.34;1748675;80;20916;-61
2022/01/22 09:26:36;;;;;;;15.38;9.13;;;;;;;12.40;33.95;99783.02;1741030;80;21120;-62
2022/01/22 09:29:03;;;;;;;12.03;6.78;;;;;;;12.21;34.57;99781.27;1695097;83;21797;-66
2022/01/22 09:31:31;;;;;;;11.53;7.28;;;;;;;12.25;34.56;99781.16;1763739;80;21108;-61
2022/01/22 09:34:00;;;;;;;11.93;6.45;;;;;;;12.56;34.18;99777.03;1754562;80;21886;-65
2022/01/22 09:36:43;;;;;;;14.15;8.08;;;;;;;12.24;34.49;99781.38;1751989;80;20899;-63
2022/01/22 09:39:28;;;;;;;12.18;7.12;;;;;;;12.36;34.32;99773.98;1750539;80;20845;-61
2022/01/22 09:41:58;;;;;;;11.93;6.67;;;;;;;12.32;34.50;99772.80;1750045;80;21144;-62
2022/01/22 09:44:41;;;;;;;10.50;6.10;;;;;;;12.56;34.16;99771.30;1655803;85;21006;-62
2022/01/22 09:47:11;;;;;;;13.35;7.37;;;;;;;12.73;34.07;99770.33;1739337;80;21041;-61
2022/01/22 09:49:51;;;;;;;12.50;7.25;;;;;;;13.14;33.50;99776.44;1742162;80;21058;-61
2022/01/22 09:52:22;;;;;;;11.78;7.70;;;;;;;13.57;32.75;99777.05;1713061;81;22036;-61
2022/01/22 09:54:51;;;;;;;11.70;6.97;;;;;;;13.19;32.97;99780.23;1710878;82;21782;-61
2022/01/22 09:57:39;;;;;;;12.35;6.70;;;;;;;12.97;33.21;99781.06;1746592;80;21040;-63
2022/01/22 10:00:25;;;;;;;12.50;6.83;;;;;;;12.99;33.36;99785.56;1736692;80;21061;-61
2022/01/22 10:02:54;;;;;;;13.53;7.67;;;;;;;13.01;33.27;99784.35;1763582;79;21035;-62
2022/01/22 10:05:38;;;;;;;12.40;7.28;;;;;;;13.15;33.48;99781.16;1768067;79;21370;-66
2022/01/22 10:08:27;;;;;;;12.68;7.35;;;;;;;13.09;33.50;99788.02;1680524;84;21211;-66
2022/01/22 10:10:57;;;;;;;14.43;8.43;;;;;;;13.12;33.29;99785.50;1737410;80;21097;-65
2022/01/22 10:13:39;;;;;;;14.30;6.80;;;;;;;12.94;33.72;99787.51;1696792;83;20992;-62
2022/01/22 10:16:30;;;;;;;14.03;6.47;;;;;;;13.14;33.27;99781.67;1733872;80;20911;-61
2022/01/22 10:19:15;;;;;;;13.55;7.10;;;;;;;12.95;33.06;99777.84;1732912;80;20975;-60
2022/01/22 10:21:58;;;;;;;12.33;7.53;;;;;;;12.57;33.62;99787.78;1731642;81;21157;-61
2022/01/22 10:24:47;;;;;;;24.67;14.98;;;;;;;12.61;33.70;99791.58;1731699;81;21076;-60
2022/01/22 10:27:34;;;;;;;13.00;7.80;;;;;;;12.63;33.76;99798.73;1733831;80;20876;-69
2022/01/22 10:30:11;;;;;;;15.95;7.60;;;;;;;12.82;33.43;99799.14;1756081;79;20962;-63
2022/01/22 10:32:47;;;;;;;13.38;7.33;;;;;;;12.56;33.79;99796.13;1764963;79;21475;-68
2022/01/22 10:35:27;;;;;;;14.65;8.38;;;;;;;12.60;33.78;99797.83;1757051;79;21130;-61
2022/01/22 10:38:12;;;;;;;13.78;7.55;;;;;;;12.87;33.74;99803.23;1757292;79;21064;-63
2022/01/22 10:40:42;;;;;;;14.83;7.22;;;;;;;12.50;34.20;99810.05;1769645;79;21026;-68
2022/01/22 10:46:33;;;;;;;14.90;7.97;;;;;;;12.45;34.24;99805.13;1768217;79;21384;-69
2022/01/22 10:49:04;;;;;;;14.60;8.25;;;;;;;12.25;34.52;99809.11;1756816;79;21188;-59
2022/01/22 10:51:34;;;;;;;13.13;7.72;;;;;;;11.95;34.94;99805.63;1757732;79;21016;-69
2022/01/22 10:54:04;;;;;;;12.90;7.70;;;;;;;12.64;34.66;99804.25;1734444;80;21096;-66
2022/01/22 10:56:32;;;;;;;14.40;7.35;;;;;;;12.60;34.68;99804.36;1726751;79;21065;-62
2022/01/22 10:59:11;;;;;;;16.95;8.55;;;;;;;12.84;34.02;99803.67;1757205;79;20975;-59
2022/01/22 11:01:48;;;;;;;13.48;7.15;;;;;;;12.77;34.03;99804.72;1753535;79;21197;-70
2022/01/22 11:04:18;;;;;;;15.38;7.50;;;;;;;12.39;34.51;99808.07;1759590;79;21035;-62
2022/01/22 11:07:02;;;;;;;18.52;8.93;;;;;;;12.71;34.60;99810.25;1754693;79;20969;-70
2022/01/22 11:09:36;;;;;;;14.53;8.43;;;;;;;12.90;34.06;99809.87;1774883;79;21003;-60
2022/01/22 11:12:05;;;;;;;11.70;7.30;;;;;;;12.94;33.97;99809.75;1762118;79;21026;-62
2022/01/22 11:14:36;;;;;;;13.58;7.53;;;;;;;13.31;33.30;99798.20;1759377;79;21150;-61
2022/01/22 11:17:07;;;;;;;13.38;7.22;;;;;;;13.24;33.36;99806.08;1762854;79;21463;-62
2022/01/22 11:19:35;;;;;;;13.30;6.97;;;;;;;13.49;33.12;99810.05;1759690;79;21136;-61
2022/01/22 11:22:18;;;;;;;12.18;7.25;;;;;;;13.37;32.91;99811.25;1725193;81;21531;-62
2022/01/22 11:24:51;;;;;;;16.05;10.28;;;;;;;13.17;33.65;99809.72;1768647;79;21050;-64
2022/01/22 11:27:22;;;;;;;13.80;8.55;;;;;;;12.83;34.75;99813.02;1758992;79;21826;-60
2022/01/22 11:30:01;;;;;;;13.25;7.67;;;;;;;13.78;33.84;99811.22;1763151;79;21395;-60
2022/01/22 11:32:45;;;;;;;14.25;8.45;;;;;;;14.04;33.29;99812.00;1775350;79;20886;-62
2022/01/22 11:35:12;;;;;;;14.60;8.58;;;;;;;14.39;33.17;99809.61;1767029;79;20889;-61
2022/01/22 11:37:46;;;;;;;16.90;9.73;;;;;;;14.91;32.90;99812.66;1773797;79;21057;-62
2022/01/22 11:40:19;;;;;;;16.20;9.88;;;;;;;15.15;32.66;99807.48;1764930;79;20888;-64
2022/01/22 11:43:09;;;;;;;15.20;8.60;;;;;;;14.71;33.17;99807.67;1761111;79;21444;-64
2022/01/22 11:45:50;;;;;;;15.50;9.30;;;;;;;14.34;32.81;99799.78;1757081;79;21579;-69
2022/01/22 11:48:18;;;;;;;17.00;9.73;;;;;;;14.13;33.07;99802.86;1752762;80;21068;-65
2022/01/22 11:50:48;;;;;;;23.77;13.28;;;;;;;14.81;32.46;99800.08;1751292;80;21028;-63
2022/01/22 11:53:33;;;;;;;22.55;10.15;;;;;;;14.69;32.88;99798.41;1752495;80;21135;-63
2022/01/22 11:56:27;;;;;;;18.15;11.15;;;;;;;14.94;32.17;99807.48;1723921;81;20978;-61
2022/01/22 11:59:14;;;;;;;19.98;11.33;;;;;;;14.66;31.91;99807.54;1729325;81;21065;-71
2022/01/22 12:01:53;;;;;;;21.42;13.38;;;;;;;14.42;32.04;99813.11;1728549;81;21161;-62
2022/01/22 12:04:21;;;;;;;19.95;11.25;;;;;;;14.26;32.06;99810.56;1725666;82;21066;-62
2022/01/22 12:07:11;;;;;;;12.33;7.25;;;;;;;14.17;32.36;99810.58;1722725;81;21828;-68
2022/01/22 12:15:45;;;;;;;15.30;7.90;;;;;;;13.91;32.56;99817.37;1694321;82;21426;-65
2022/01/22 12:18:16;;;;;;;11.93;7.12;;;;;;;13.73;32.71;99812.38;1718721;82;20990;-60
2022/01/22 12:23:35;;;;;;;18.05;10.48;;;;;;;14.00;32.07;99809.52;1717927;82;20913;-67
2022/01/22 12:26:04;;;;;;;9.38;6.10;;;;;;;13.68;32.25;99816.66;1711754;82;21021;-60
2022/01/22 12:28:42;;;;;;;11.45;6.40;;;;;;;13.91;32.21;99822.11;1724619;81;21007;-60
2022/01/22 12:31:24;;;;;;;10.13;6.10;;;;;;;13.76;32.23;99821.12;1708294;82;21040;-60
2022/01/22 12:33:52;;;;;;;13.98;7.95;;;;;;;13.55;32.48;99819.66;1702688;82;21074;-60
2022/01/22 12:36:26;;;;;;;11.40;5.90;;;;;;;13.50;32.37;99823.94;1714388;82;21135;-60
2022/01/22 12:39:09;;;;;;;10.68;5.70;;;;;;;13.45;32.31;99828.99;1707433;82;21493;-59
2022/01/22 12:44:23;;;;;;;11.88;6.67;;;;;;;13.37;32.27;99838.73;1759309;80;20985;-65
2022/01/22 12:46:43;;;;;;;9.95;5.70;;;;;;;13.06;32.69;99839.46;1750579;80;21153;-61
2022/01/22 12:49:09;;;;;;;10.28;6.40;;;;;;;13.12;32.77;99839.15;1722426;81;20870;-64
2022/01/22 12:51:36;;;;;;;12.73;7.30;;;;;;;13.07;32.88;99842.91;1757836;80;21090;-61
2022/01/22 12:54:04;;;;;;;11.78;7.28;;;;;;;13.41;32.54;99839.12;1751980;80;20939;-61
2022/01/22 12:59:09;;;;;;;10.28;6.05;;;;;;;13.07;32.96;99846.33;1755846;80;21155;-67
2022/01/22 13:01:38;;;;;;;11.38;7.17;;;;;;;13.02;32.86;99847.44;1753225;80;21094;-59
2022/01/22 13:04:08;;;;;;;15.23;6.55;;;;;;;12.98;32.63;99850.17;1763131;80;21010;-67
2022/01/22 13:06:44;;;;;;;11.80;6.25;;;;;;;12.91;32.81;99852.02;1752397;80;21173;-59
2022/01/22 13:09:18;;;;;;;11.35;6.08;;;;;;;12.81;32.92;99849.86;1719428;80;20963;-60
2022/01/22 13:11:50;;;;;;;10.03;5.30;;;;;;;12.85;32.89;99854.97;1754206;80;22267;-60
2022/01/22 13:14:28;;;;;;;13.47;5.77;;;;;;;12.91;32.77;99857.25;1751786;80;21089;-61
2022/01/22 13:16:56;;;;;;;12.05;6.45;;;;;;;12.69;33.16;99865.91;1773418;80;21058;-61
2022/01/22 13:19:24;;;;;;;12.70;7.10;;;;;;;12.54;33.10;99879.69;1779286;80;21048;-67
2022/01/22 13:21:54;;;;;;;9.25;5.20;;;;;;;12.45;33.40;99878.31;1779554;80;20985;-59
2022/01/22 13:24:26;;;;;;;14.45;6.20;;;;;;;12.28;33.38;99882.67;1779805;80;21116;-60
2022/01/22 13:27:09;;;;;;;12.00;6.15;;;;;;;12.47;33.09;99884.95;1779273;80;20984;-59
2022/01/22 13:29:41;;;;;;;14.07;7.10;;;;;;;12.28;33.25;99893.13;1776275;80;21072;-60
2022/01/22 13:32:34;;;;;;;12.60;7.05;;;;;;;12.11;33.38;99895.33;1779853;80;20973;-59